sensor_id;sensor_type;location;lat;lon;timestamp;P1;durP1;ratioP1;P2;durP2;ratioP2
49870;SDS011;35767;52.322;9.122;2024-01-10T00:02:36;17.55;;;9.38;;
49870;SDS011;35767;52.322;9.122;2024-01-10T00:05:38;13.57;;;8.38;;
49870;SDS011;35767;52.322;9.122;2024-01-10T00:08:46;12.48;;;8.00;;
49870;SDS011;35767;52.322;9.122;2024-01-10T00:11:48;17.73;;;8.75;;
49870;SDS011;35767;52.322;9.122;2024-01-10T00:14:49;12.02;;;8.77;;
49870;SDS011;35767;52.322;9.122;2024-01-10T00:17:52;16.83;;;9.00;;
49870;SDS011;35767;52.322;9.122;2024-01-10T00:20:54;16.33;;;8.35;;
49870;SDS011;35767;52.322;9.122;2024-01-10T00:23:55;11.60;;;8.43;;
49870;SDS011;35767;52.322;9.122;2024-01-10T00:26:57;16.85;;;9.95;;
49870;SDS011;35767;52.322;9.122;2024-01-10T00:29:59;19.02;;;10.57;;
49870;SDS011;35767;52.322;9.122;2024-01-10T00:33:02;14.63;;;8.88;;
49870;SDS011;35767;52.322;9.122;2024-01-10T00:36:04;13.43;;;8.45;;
49870;SDS011;35767;52.322;9.122;2024-01-10T00:39:06;11.85;;;9.10;;
49870;SDS011;35767;52.322;9.122;2024-01-10T00:42:08;15.57;;;8.70;;
49870;SDS011;35767;52.322;9.122;2024-01-10T00:45:09;13.00;;;8.18;;
49870;SDS011;35767;52.322;9.122;2024-01-10T00:48:12;14.10;;;8.15;;
49870;SDS011;35767;52.322;9.122;2024-01-10T00:51:14;16.27;;;8.63;;
49870;SDS011;35767;52.322;9.122;2024-01-10T00:54:15;15.83;;;8.03;;
49870;SDS011;35767;52.322;9.122;2024-01-10T00:57:17;15.90;;;8.27;;
49870;SDS011;35767;52.322;9.122;2024-01-10T01:00:18;14.48;;;8.50;;
49870;SDS011;35767;52.322;9.122;2024-01-10T01:03:21;13.43;;;7.90;;
49870;SDS011;35767;52.322;9.122;2024-01-10T01:06:23;13.23;;;8.27;;
49870;SDS011;35767;52.322;9.122;2024-01-10T01:09:24;17.45;;;8.18;;
49870;SDS011;35767;52.322;9.122;2024-01-10T01:12:26;14.73;;;8.43;;
49870;SDS011;35767;52.322;9.122;2024-01-10T01:15:28;12.57;;;7.88;;
49870;SDS011;35767;52.322;9.122;2024-01-10T01:18:32;15.55;;;8.90;;
49870;SDS011;35767;52.322;9.122;2024-01-10T01:21:33;14.00;;;9.52;;
49870;SDS011;35767;52.322;9.122;2024-01-10T01:24:35;15.00;;;8.50;;
49870;SDS011;35767;52.322;9.122;2024-01-10T01:27:36;14.65;;;9.10;;
49870;SDS011;35767;52.322;9.122;2024-01-10T01:30:38;14.20;;;8.55;;
49870;SDS011;35767;52.322;9.122;2024-01-10T01:33:41;13.30;;;8.60;;
49870;SDS011;35767;52.322;9.122;2024-01-10T01:36:42;12.30;;;8.45;;
49870;SDS011;35767;52.322;9.122;2024-01-10T01:39:44;13.40;;;8.10;;
49870;SDS011;35767;52.322;9.122;2024-01-10T01:42:45;13.10;;;7.87;;
49870;SDS011;35767;52.322;9.122;2024-01-10T01:45:47;15.25;;;8.77;;
49870;SDS011;35767;52.322;9.122;2024-01-10T01:48:53;16.88;;;7.78;;
49870;SDS011;35767;52.322;9.122;2024-01-10T01:51:54;13.63;;;8.60;;
49870;SDS011;35767;52.322;9.122;2024-01-10T01:54:56;11.53;;;7.67;;
49870;SDS011;35767;52.322;9.122;2024-01-10T01:57:58;14.20;;;8.23;;
49870;SDS011;35767;52.322;9.122;2024-01-10T02:00:59;13.55;;;8.52;;
49870;SDS011;35767;52.322;9.122;2024-01-10T02:04:08;11.88;;;7.47;;
49870;SDS011;35767;52.322;9.122;2024-01-10T02:07:10;12.20;;;7.95;;
49870;SDS011;35767;52.322;9.122;2024-01-10T02:10:12;14.43;;;8.23;;
49870;SDS011;35767;52.322;9.122;2024-01-10T02:13:14;12.27;;;7.57;;
49870;SDS011;35767;52.322;9.122;2024-01-10T02:16:15;12.85;;;7.72;;
49870;SDS011;35767;52.322;9.122;2024-01-10T02:19:19;12.88;;;7.63;;
49870;SDS011;35767;52.322;9.122;2024-01-10T02:22:21;12.82;;;8.50;;
49870;SDS011;35767;52.322;9.122;2024-01-10T02:25:24;13.47;;;8.57;;
49870;SDS011;35767;52.322;9.122;2024-01-10T02:28:25;15.98;;;8.00;;
49870;SDS011;35767;52.322;9.122;2024-01-10T02:31:27;16.43;;;8.53;;
49870;SDS011;35767;52.322;9.122;2024-01-10T02:34:29;11.87;;;7.93;;
49870;SDS011;35767;52.322;9.122;2024-01-10T02:37:31;15.15;;;9.40;;
49870;SDS011;35767;52.322;9.122;2024-01-10T02:40:34;14.00;;;8.07;;
49870;SDS011;35767;52.322;9.122;2024-01-10T02:43:35;16.90;;;9.50;;
49870;SDS011;35767;52.322;9.122;2024-01-10T02:46:37;15.05;;;9.25;;
49870;SDS011;35767;52.322;9.122;2024-01-10T02:49:38;14.30;;;8.38;;
49870;SDS011;35767;52.322;9.122;2024-01-10T02:52:40;18.60;;;9.13;;
49870;SDS011;35767;52.322;9.122;2024-01-10T02:55:43;14.43;;;9.02;;
49870;SDS011;35767;52.322;9.122;2024-01-10T02:58:45;14.27;;;8.45;;
49870;SDS011;35767;52.322;9.122;2024-01-10T03:01:46;15.88;;;8.80;;
49870;SDS011;35767;52.322;9.122;2024-01-10T03:04:48;15.65;;;9.10;;
49870;SDS011;35767;52.322;9.122;2024-01-10T03:07:50;17.00;;;9.43;;
49870;SDS011;35767;52.322;9.122;2024-01-10T03:10:52;19.23;;;10.47;;
49870;SDS011;35767;52.322;9.122;2024-01-10T03:14:00;16.35;;;9.93;;
49870;SDS011;35767;52.322;9.122;2024-01-10T03:17:02;14.63;;;8.63;;
49870;SDS011;35767;52.322;9.122;2024-01-10T03:20:05;15.63;;;9.05;;
49870;SDS011;35767;52.322;9.122;2024-01-10T03:23:07;18.15;;;10.38;;
49870;SDS011;35767;52.322;9.122;2024-01-10T03:26:10;17.33;;;9.77;;
49870;SDS011;35767;52.322;9.122;2024-01-10T03:29:12;18.25;;;10.00;;
49870;SDS011;35767;52.322;9.122;2024-01-10T03:32:14;15.23;;;9.27;;
49870;SDS011;35767;52.322;9.122;2024-01-10T03:35:15;18.25;;;10.82;;
49870;SDS011;35767;52.322;9.122;2024-01-10T03:38:17;17.15;;;10.45;;
49870;SDS011;35767;52.322;9.122;2024-01-10T03:41:20;19.20;;;9.80;;
49870;SDS011;35767;52.322;9.122;2024-01-10T03:44:22;17.58;;;10.80;;
49870;SDS011;35767;52.322;9.122;2024-01-10T03:47:23;16.13;;;10.45;;
49870;SDS011;35767;52.322;9.122;2024-01-10T03:50:25;16.13;;;10.25;;
49870;SDS011;35767;52.322;9.122;2024-01-10T03:53:27;18.35;;;10.77;;
49870;SDS011;35767;52.322;9.122;2024-01-10T03:56:30;20.38;;;12.07;;
49870;SDS011;35767;52.322;9.122;2024-01-10T03:59:35;19.13;;;11.02;;
49870;SDS011;35767;52.322;9.122;2024-01-10T04:02:36;22.05;;;11.70;;
49870;SDS011;35767;52.322;9.122;2024-01-10T04:05:38;20.55;;;11.20;;
49870;SDS011;35767;52.322;9.122;2024-01-10T04:08:40;17.88;;;10.60;;
49870;SDS011;35767;52.322;9.122;2024-01-10T04:11:43;22.00;;;11.00;;
49870;SDS011;35767;52.322;9.122;2024-01-10T04:14:45;18.15;;;10.98;;
49870;SDS011;35767;52.322;9.122;2024-01-10T04:17:46;22.52;;;11.20;;
49870;SDS011;35767;52.322;9.122;2024-01-10T04:20:48;16.83;;;10.85;;
49870;SDS011;35767;52.322;9.122;2024-01-10T04:23:50;21.55;;;11.05;;
49870;SDS011;35767;52.322;9.122;2024-01-10T04:26:53;19.23;;;10.23;;
49870;SDS011;35767;52.322;9.122;2024-01-10T04:29:55;16.85;;;9.93;;
49870;SDS011;35767;52.322;9.122;2024-01-10T04:32:56;21.52;;;11.80;;
49870;SDS011;35767;52.322;9.122;2024-01-10T04:35:58;17.70;;;11.23;;
49870;SDS011;35767;52.322;9.122;2024-01-10T04:38:59;22.00;;;11.53;;
49870;SDS011;35767;52.322;9.122;2024-01-10T04:42:02;19.53;;;10.50;;
49870;SDS011;35767;52.322;9.122;2024-01-10T04:45:04;21.63;;;11.55;;
49870;SDS011;35767;52.322;9.122;2024-01-10T04:48:06;19.98;;;11.50;;
49870;SDS011;35767;52.322;9.122;2024-01-10T04:51:08;20.20;;;11.05;;
49870;SDS011;35767;52.322;9.122;2024-01-10T04:54:10;18.80;;;11.60;;
49870;SDS011;35767;52.322;9.122;2024-01-10T04:57:13;19.85;;;11.90;;
49870;SDS011;35767;52.322;9.122;2024-01-10T05:00:15;21.02;;;11.95;;
49870;SDS011;35767;52.322;9.122;2024-01-10T05:03:27;22.70;;;11.70;;
49870;SDS011;35767;52.322;9.122;2024-01-10T05:06:28;21.00;;;12.40;;
49870;SDS011;35767;52.322;9.122;2024-01-10T05:09:30;24.52;;;12.05;;
49870;SDS011;35767;52.322;9.122;2024-01-10T05:12:33;22.00;;;11.68;;
49870;SDS011;35767;52.322;9.122;2024-01-10T05:15:35;23.70;;;12.25;;
49870;SDS011;35767;52.322;9.122;2024-01-10T05:18:36;18.35;;;11.75;;
49870;SDS011;35767;52.322;9.122;2024-01-10T05:21:38;20.05;;;12.93;;
49870;SDS011;35767;52.322;9.122;2024-01-10T05:24:39;22.65;;;12.88;;
49870;SDS011;35767;52.322;9.122;2024-01-10T05:27:42;22.17;;;12.57;;
49870;SDS011;35767;52.322;9.122;2024-01-10T05:30:43;18.25;;;12.02;;
49870;SDS011;35767;52.322;9.122;2024-01-10T05:33:45;22.73;;;13.30;;
49870;SDS011;35767;52.322;9.122;2024-01-10T05:36:47;18.67;;;11.93;;
49870;SDS011;35767;52.322;9.122;2024-01-10T05:39:48;23.70;;;12.87;;
49870;SDS011;35767;52.322;9.122;2024-01-10T05:42:52;21.52;;;11.60;;
49870;SDS011;35767;52.322;9.122;2024-01-10T05:45:53;21.23;;;13.30;;
49870;SDS011;35767;52.322;9.122;2024-01-10T05:48:55;27.02;;;13.07;;
49870;SDS011;35767;52.322;9.122;2024-01-10T05:51:57;20.83;;;11.90;;
49870;SDS011;35767;52.322;9.122;2024-01-10T05:54:58;25.63;;;13.88;;
49870;SDS011;35767;52.322;9.122;2024-01-10T05:58:01;24.25;;;12.45;;
49870;SDS011;35767;52.322;9.122;2024-01-10T06:01:03;22.08;;;13.38;;
49870;SDS011;35767;52.322;9.122;2024-01-10T06:04:05;25.27;;;14.40;;
49870;SDS011;35767;52.322;9.122;2024-01-10T06:07:19;23.73;;;14.07;;
49870;SDS011;35767;52.322;9.122;2024-01-10T06:10:21;25.52;;;14.07;;
49870;SDS011;35767;52.322;9.122;2024-01-10T06:13:30;28.10;;;14.15;;
49870;SDS011;35767;52.322;9.122;2024-01-10T06:16:49;26.90;;;15.05;;
49870;SDS011;35767;52.322;9.122;2024-01-10T06:19:53;28.08;;;15.18;;
49870;SDS011;35767;52.322;9.122;2024-01-10T06:22:55;29.73;;;15.13;;
49870;SDS011;35767;52.322;9.122;2024-01-10T06:25:56;33.42;;;14.40;;
49870;SDS011;35767;52.322;9.122;2024-01-10T06:28:59;25.58;;;14.88;;
49870;SDS011;35767;52.322;9.122;2024-01-10T06:32:07;29.85;;;15.18;;
49870;SDS011;35767;52.322;9.122;2024-01-10T06:35:09;29.70;;;15.32;;
49870;SDS011;35767;52.322;9.122;2024-01-10T06:38:17;30.38;;;15.52;;
49870;SDS011;35767;52.322;9.122;2024-01-10T06:41:20;34.85;;;15.57;;
49870;SDS011;35767;52.322;9.122;2024-01-10T06:50:36;27.30;;;15.27;;
49870;SDS011;35767;52.322;9.122;2024-01-10T06:53:38;37.03;;;15.35;;
49870;SDS011;35767;52.322;9.122;2024-01-10T06:56:46;36.33;;;16.05;;
49870;SDS011;35767;52.322;9.122;2024-01-10T06:59:49;32.35;;;16.17;;
49870;SDS011;35767;52.322;9.122;2024-01-10T07:02:51;21.98;;;13.73;;
49870;SDS011;35767;52.322;9.122;2024-01-10T07:05:53;36.95;;;17.25;;
49870;SDS011;35767;52.322;9.122;2024-01-10T07:08:54;29.50;;;16.33;;
49870;SDS011;35767;52.322;9.122;2024-01-10T07:11:56;38.08;;;15.80;;
49870;SDS011;35767;52.322;9.122;2024-01-10T07:14:58;29.10;;;16.05;;
49870;SDS011;35767;52.322;9.122;2024-01-10T07:18:00;28.77;;;16.63;;
49870;SDS011;35767;52.322;9.122;2024-01-10T07:21:02;32.03;;;16.83;;
49870;SDS011;35767;52.322;9.122;2024-01-10T07:24:10;29.08;;;16.40;;
49870;SDS011;35767;52.322;9.122;2024-01-10T07:27:12;39.40;;;17.17;;
49870;SDS011;35767;52.322;9.122;2024-01-10T07:30:15;34.88;;;16.40;;
49870;SDS011;35767;52.322;9.122;2024-01-10T07:33:49;36.35;;;17.67;;
49870;SDS011;35767;52.322;9.122;2024-01-10T07:36:51;32.20;;;17.00;;
49870;SDS011;35767;52.322;9.122;2024-01-10T07:39:52;38.35;;;17.70;;
49870;SDS011;35767;52.322;9.122;2024-01-10T07:42:54;33.67;;;16.20;;
49870;SDS011;35767;52.322;9.122;2024-01-10T07:45:57;32.10;;;17.13;;
49870;SDS011;35767;52.322;9.122;2024-01-10T07:48:58;30.85;;;17.95;;
49870;SDS011;35767;52.322;9.122;2024-01-10T07:52:00;36.25;;;18.63;;
49870;SDS011;35767;52.322;9.122;2024-01-10T07:55:02;34.92;;;18.58;;
49870;SDS011;35767;52.322;9.122;2024-01-10T07:58:11;37.38;;;18.90;;
49870;SDS011;35767;52.322;9.122;2024-01-10T08:01:21;38.47;;;17.35;;
49870;SDS011;35767;52.322;9.122;2024-01-10T08:04:22;41.78;;;18.48;;
49870;SDS011;35767;52.322;9.122;2024-01-10T08:07:24;43.30;;;19.52;;
49870;SDS011;35767;52.322;9.122;2024-01-10T08:10:25;34.92;;;17.60;;
49870;SDS011;35767;52.322;9.122;2024-01-10T08:13:33;39.45;;;18.55;;
49870;SDS011;35767;52.322;9.122;2024-01-10T08:16:36;39.25;;;19.20;;
49870;SDS011;35767;52.322;9.122;2024-01-10T08:19:44;38.15;;;18.58;;
49870;SDS011;35767;52.322;9.122;2024-01-10T08:22:53;40.85;;;19.52;;
49870;SDS011;35767;52.322;9.122;2024-01-10T08:26:00;42.65;;;20.10;;
49870;SDS011;35767;52.322;9.122;2024-01-10T08:29:02;40.65;;;20.30;;
49870;SDS011;35767;52.322;9.122;2024-01-10T08:32:05;43.50;;;19.80;;
49870;SDS011;35767;52.322;9.122;2024-01-10T08:35:13;53.72;;;20.77;;
49870;SDS011;35767;52.322;9.122;2024-01-10T08:38:15;43.47;;;19.98;;
49870;SDS011;35767;52.322;9.122;2024-01-10T08:41:23;49.63;;;20.33;;
49870;SDS011;35767;52.322;9.122;2024-01-10T08:44:24;40.47;;;19.92;;
49870;SDS011;35767;52.322;9.122;2024-01-10T08:47:41;39.13;;;20.58;;
49870;SDS011;35767;52.322;9.122;2024-01-10T08:50:42;45.83;;;20.40;;
49870;SDS011;35767;52.322;9.122;2024-01-10T08:53:50;47.13;;;20.42;;
49870;SDS011;35767;52.322;9.122;2024-01-10T08:56:52;44.90;;;21.02;;
49870;SDS011;35767;52.322;9.122;2024-01-10T09:00:00;41.63;;;18.95;;
49870;SDS011;35767;52.322;9.122;2024-01-10T09:03:13;38.23;;;19.63;;
49870;SDS011;35767;52.322;9.122;2024-01-10T09:06:15;41.00;;;20.65;;
49870;SDS011;35767;52.322;9.122;2024-01-10T09:09:23;40.45;;;20.30;;
49870;SDS011;35767;52.322;9.122;2024-01-10T09:12:24;42.20;;;19.48;;
49870;SDS011;35767;52.322;9.122;2024-01-10T09:15:33;40.10;;;20.35;;
49870;SDS011;35767;52.322;9.122;2024-01-10T09:18:36;50.90;;;21.98;;
49870;SDS011;35767;52.322;9.122;2024-01-10T09:21:45;47.28;;;20.35;;
49870;SDS011;35767;52.322;9.122;2024-01-10T09:24:51;46.28;;;19.50;;
49870;SDS011;35767;52.322;9.122;2024-01-10T09:27:52;51.05;;;22.00;;
49870;SDS011;35767;52.322;9.122;2024-01-10T09:30:54;47.25;;;20.48;;
49870;SDS011;35767;52.322;9.122;2024-01-10T09:34:04;41.78;;;19.23;;
49870;SDS011;35767;52.322;9.122;2024-01-10T09:37:05;39.28;;;20.85;;
49870;SDS011;35767;52.322;9.122;2024-01-10T09:40:17;53.45;;;22.23;;
49870;SDS011;35767;52.322;9.122;2024-01-10T09:43:29;42.17;;;20.92;;
49870;SDS011;35767;52.322;9.122;2024-01-10T09:46:30;38.45;;;20.88;;
49870;SDS011;35767;52.322;9.122;2024-01-10T09:50:03;46.03;;;20.73;;
49870;SDS011;35767;52.322;9.122;2024-01-10T09:53:06;55.25;;;22.00;;
49870;SDS011;35767;52.322;9.122;2024-01-10T09:56:08;49.38;;;20.90;;
49870;SDS011;35767;52.322;9.122;2024-01-10T09:59:10;40.95;;;22.02;;
49870;SDS011;35767;52.322;9.122;2024-01-10T10:02:19;44.28;;;19.05;;
49870;SDS011;35767;52.322;9.122;2024-01-10T10:05:49;47.22;;;21.90;;
49870;SDS011;35767;52.322;9.122;2024-01-10T10:08:51;41.92;;;21.10;;
49870;SDS011;35767;52.322;9.122;2024-01-10T10:11:53;42.88;;;20.70;;
49870;SDS011;35767;52.322;9.122;2024-01-10T10:15:06;43.25;;;20.23;;
49870;SDS011;35767;52.322;9.122;2024-01-10T10:18:18;47.50;;;21.73;;
49870;SDS011;35767;52.322;9.122;2024-01-10T10:21:21;52.28;;;23.95;;
49870;SDS011;35767;52.322;9.122;2024-01-10T10:24:23;47.05;;;21.70;;
49870;SDS011;35767;52.322;9.122;2024-01-10T10:27:38;43.08;;;20.85;;
49870;SDS011;35767;52.322;9.122;2024-01-10T10:30:39;44.77;;;22.03;;
49870;SDS011;35767;52.322;9.122;2024-01-10T10:33:48;43.60;;;21.73;;
49870;SDS011;35767;52.322;9.122;2024-01-10T10:36:52;40.13;;;20.90;;
49870;SDS011;35767;52.322;9.122;2024-01-10T10:40:00;44.03;;;21.38;;
49870;SDS011;35767;52.322;9.122;2024-01-10T10:43:08;49.85;;;23.38;;
49870;SDS011;35767;52.322;9.122;2024-01-10T10:46:20;39.92;;;22.40;;
49870;SDS011;35767;52.322;9.122;2024-01-10T10:49:26;52.72;;;22.67;;
49870;SDS011;35767;52.322;9.122;2024-01-10T10:53:05;53.55;;;22.83;;
49870;SDS011;35767;52.322;9.122;2024-01-10T10:56:14;47.03;;;20.95;;
49870;SDS011;35767;52.322;9.122;2024-01-10T10:59:16;49.67;;;23.08;;
49870;SDS011;35767;52.322;9.122;2024-01-10T11:02:20;40.63;;;20.13;;
49870;SDS011;35767;52.322;9.122;2024-01-10T11:05:28;47.38;;;22.50;;
49870;SDS011;35767;52.322;9.122;2024-01-10T11:08:32;44.72;;;20.98;;
49870;SDS011;35767;52.322;9.122;2024-01-10T11:11:45;49.33;;;22.35;;
49870;SDS011;35767;52.322;9.122;2024-01-10T11:15:03;48.45;;;22.13;;
49870;SDS011;35767;52.322;9.122;2024-01-10T11:18:25;49.88;;;22.23;;
49870;SDS011;35767;52.322;9.122;2024-01-10T11:21:40;43.30;;;22.13;;
49870;SDS011;35767;52.322;9.122;2024-01-10T11:24:47;46.15;;;23.20;;
49870;SDS011;35767;52.322;9.122;2024-01-10T11:27:51;49.78;;;22.55;;
49870;SDS011;35767;52.322;9.122;2024-01-10T11:31:12;49.13;;;23.27;;
49870;SDS011;35767;52.322;9.122;2024-01-10T11:34:14;48.53;;;23.48;;
49870;SDS011;35767;52.322;9.122;2024-01-10T11:37:22;46.05;;;23.20;;
49870;SDS011;35767;52.322;9.122;2024-01-10T11:40:46;50.13;;;23.27;;
49870;SDS011;35767;52.322;9.122;2024-01-10T11:47:37;46.85;;;22.17;;
49870;SDS011;35767;52.322;9.122;2024-01-10T11:50:50;47.88;;;22.63;;
49870;SDS011;35767;52.322;9.122;2024-01-10T11:54:36;48.63;;;22.10;;
49870;SDS011;35767;52.322;9.122;2024-01-10T11:57:46;45.92;;;21.73;;
49870;SDS011;35767;52.322;9.122;2024-01-10T12:01:06;48.57;;;24.37;;
49870;SDS011;35767;52.322;9.122;2024-01-10T12:04:14;47.72;;;22.52;;
49870;SDS011;35767;52.322;9.122;2024-01-10T12:10:38;53.40;;;22.90;;
49870;SDS011;35767;52.322;9.122;2024-01-10T12:13:41;47.57;;;22.93;;
49870;SDS011;35767;52.322;9.122;2024-01-10T12:16:50;42.72;;;21.75;;
49870;SDS011;35767;52.322;9.122;2024-01-10T12:22:59;45.45;;;20.70;;
49870;SDS011;35767;52.322;9.122;2024-01-10T12:26:01;45.63;;;22.33;;
49870;SDS011;35767;52.322;9.122;2024-01-10T12:29:04;43.42;;;22.75;;
49870;SDS011;35767;52.322;9.122;2024-01-10T12:32:07;49.80;;;22.40;;
49870;SDS011;35767;52.322;9.122;2024-01-10T12:35:08;42.65;;;21.00;;
49870;SDS011;35767;52.322;9.122;2024-01-10T12:38:10;50.88;;;23.20;;
49870;SDS011;35767;52.322;9.122;2024-01-10T12:41:12;48.70;;;22.17;;
49870;SDS011;35767;52.322;9.122;2024-01-10T12:44:17;41.47;;;21.40;;
49870;SDS011;35767;52.322;9.122;2024-01-10T12:47:18;49.70;;;23.33;;
49870;SDS011;35767;52.322;9.122;2024-01-10T12:50:30;44.35;;;23.17;;
49870;SDS011;35767;52.322;9.122;2024-01-10T12:54:05;51.88;;;22.48;;
49870;SDS011;35767;52.322;9.122;2024-01-10T12:57:07;50.00;;;23.90;;
49870;SDS011;35767;52.322;9.122;2024-01-10T13:00:38;50.67;;;22.10;;
49870;SDS011;35767;52.322;9.122;2024-01-10T13:03:45;48.65;;;23.65;;
49870;SDS011;35767;52.322;9.122;2024-01-10T13:06:47;43.53;;;22.33;;
49870;SDS011;35767;52.322;9.122;2024-01-10T13:09:50;46.60;;;21.23;;
49870;SDS011;35767;52.322;9.122;2024-01-10T13:12:52;50.40;;;21.63;;
49870;SDS011;35767;52.322;9.122;2024-01-10T13:15:55;46.87;;;21.43;;
49870;SDS011;35767;52.322;9.122;2024-01-10T13:18:56;45.25;;;22.63;;
49870;SDS011;35767;52.322;9.122;2024-01-10T13:21:58;51.60;;;22.67;;
49870;SDS011;35767;52.322;9.122;2024-01-10T13:25:00;47.72;;;22.98;;
49870;SDS011;35767;52.322;9.122;2024-01-10T13:28:12;50.33;;;22.60;;
49870;SDS011;35767;52.322;9.122;2024-01-10T13:31:15;45.57;;;23.10;;
49870;SDS011;35767;52.322;9.122;2024-01-10T13:34:16;47.63;;;23.13;;
49870;SDS011;35767;52.322;9.122;2024-01-10T13:37:24;55.50;;;24.08;;
49870;SDS011;35767;52.322;9.122;2024-01-10T13:40:32;55.22;;;24.33;;
49870;SDS011;35767;52.322;9.122;2024-01-10T13:43:34;47.97;;;23.52;;
49870;SDS011;35767;52.322;9.122;2024-01-10T13:46:43;47.92;;;23.42;;
49870;SDS011;35767;52.322;9.122;2024-01-10T13:49:45;45.40;;;23.70;;
49870;SDS011;35767;52.322;9.122;2024-01-10T13:52:46;46.42;;;22.77;;
49870;SDS011;35767;52.322;9.122;2024-01-10T13:55:48;46.20;;;22.70;;
49870;SDS011;35767;52.322;9.122;2024-01-10T13:59:02;51.50;;;23.92;;
49870;SDS011;35767;52.322;9.122;2024-01-10T14:02:05;45.05;;;22.40;;
49870;SDS011;35767;52.322;9.122;2024-01-10T14:05:07;47.25;;;23.77;;
49870;SDS011;35767;52.322;9.122;2024-01-10T14:08:09;45.67;;;23.58;;
49870;SDS011;35767;52.322;9.122;2024-01-10T14:11:11;49.97;;;24.73;;
49870;SDS011;35767;52.322;9.122;2024-01-10T14:14:12;51.88;;;23.75;;
49870;SDS011;35767;52.322;9.122;2024-01-10T14:17:15;41.30;;;22.60;;
49870;SDS011;35767;52.322;9.122;2024-01-10T14:20:23;45.67;;;23.00;;
49870;SDS011;35767;52.322;9.122;2024-01-10T14:23:59;48.60;;;22.60;;
49870;SDS011;35767;52.322;9.122;2024-01-10T14:27:01;46.83;;;23.38;;
49870;SDS011;35767;52.322;9.122;2024-01-10T14:30:04;41.90;;;22.23;;
49870;SDS011;35767;52.322;9.122;2024-01-10T14:33:08;45.85;;;22.98;;
49870;SDS011;35767;52.322;9.122;2024-01-10T14:36:16;50.25;;;23.65;;
49870;SDS011;35767;52.322;9.122;2024-01-10T14:39:24;44.20;;;22.52;;
49870;SDS011;35767;52.322;9.122;2024-01-10T14:42:25;39.25;;;21.73;;
49870;SDS011;35767;52.322;9.122;2024-01-10T14:45:27;47.47;;;23.00;;
49870;SDS011;35767;52.322;9.122;2024-01-10T14:48:30;44.30;;;21.33;;
49870;SDS011;35767;52.322;9.122;2024-01-10T14:51:31;46.35;;;23.02;;
49870;SDS011;35767;52.322;9.122;2024-01-10T14:54:33;49.27;;;22.23;;
49870;SDS011;35767;52.322;9.122;2024-01-10T14:57:34;44.17;;;23.00;;
49870;SDS011;35767;52.322;9.122;2024-01-10T15:00:43;46.40;;;21.40;;
49870;SDS011;35767;52.322;9.122;2024-01-10T15:03:52;47.15;;;23.20;;
49870;SDS011;35767;52.322;9.122;2024-01-10T15:06:53;47.88;;;23.13;;
49870;SDS011;35767;52.322;9.122;2024-01-10T15:10:02;48.72;;;22.38;;
49870;SDS011;35767;52.322;9.122;2024-01-10T15:13:04;44.95;;;23.50;;
49870;SDS011;35767;52.322;9.122;2024-01-10T15:16:06;44.70;;;23.63;;
49870;SDS011;35767;52.322;9.122;2024-01-10T15:19:18;42.50;;;21.52;;
49870;SDS011;35767;52.322;9.122;2024-01-10T15:22:20;46.03;;;23.92;;
49870;SDS011;35767;52.322;9.122;2024-01-10T15:25:23;49.27;;;23.03;;
49870;SDS011;35767;52.322;9.122;2024-01-10T15:28:24;42.28;;;22.02;;
49870;SDS011;35767;52.322;9.122;2024-01-10T15:31:26;46.70;;;22.67;;
49870;SDS011;35767;52.322;9.122;2024-01-10T15:34:29;41.22;;;21.20;;
49870;SDS011;35767;52.322;9.122;2024-01-10T15:37:31;44.40;;;22.27;;
49870;SDS011;35767;52.322;9.122;2024-01-10T15:40:32;51.40;;;22.57;;
49870;SDS011;35767;52.322;9.122;2024-01-10T15:43:34;42.07;;;22.20;;
49870;SDS011;35767;52.322;9.122;2024-01-10T15:46:39;47.28;;;21.90;;
49870;SDS011;35767;52.322;9.122;2024-01-10T15:49:41;42.13;;;21.50;;
49870;SDS011;35767;52.322;9.122;2024-01-10T15:52:43;48.97;;;23.40;;
49870;SDS011;35767;52.322;9.122;2024-01-10T15:55:44;48.08;;;23.83;;
49870;SDS011;35767;52.322;9.122;2024-01-10T15:58:46;46.45;;;23.73;;
49870;SDS011;35767;52.322;9.122;2024-01-10T16:01:55;49.38;;;23.00;;
49870;SDS011;35767;52.322;9.122;2024-01-10T16:04:58;45.08;;;23.20;;
49870;SDS011;35767;52.322;9.122;2024-01-10T16:08:07;52.20;;;23.75;;
49870;SDS011;35767;52.322;9.122;2024-01-10T16:11:08;49.78;;;23.88;;
49870;SDS011;35767;52.322;9.122;2024-01-10T16:14:10;45.53;;;22.73;;
49870;SDS011;35767;52.322;9.122;2024-01-10T16:17:25;47.55;;;23.20;;
49870;SDS011;35767;52.322;9.122;2024-01-10T16:20:28;42.80;;;23.27;;
49870;SDS011;35767;52.322;9.122;2024-01-10T16:23:29;48.42;;;24.15;;
49870;SDS011;35767;52.322;9.122;2024-01-10T16:26:31;53.78;;;25.48;;
49870;SDS011;35767;52.322;9.122;2024-01-10T16:29:33;54.97;;;25.17;;
49870;SDS011;35767;52.322;9.122;2024-01-10T16:32:34;48.90;;;23.40;;
49870;SDS011;35767;52.322;9.122;2024-01-10T16:35:37;49.35;;;22.13;;
49870;SDS011;35767;52.322;9.122;2024-01-10T16:38:39;45.45;;;23.58;;
49870;SDS011;35767;52.322;9.122;2024-01-10T16:41:40;48.77;;;23.57;;
49870;SDS011;35767;52.322;9.122;2024-01-10T16:44:42;43.63;;;22.57;;
49870;SDS011;35767;52.322;9.122;2024-01-10T16:47:44;56.60;;;25.02;;
49870;SDS011;35767;52.322;9.122;2024-01-10T16:50:47;48.13;;;24.60;;
49870;SDS011;35767;52.322;9.122;2024-01-10T16:53:55;51.22;;;22.63;;
49870;SDS011;35767;52.322;9.122;2024-01-10T16:56:56;51.07;;;23.93;;
49870;SDS011;35767;52.322;9.122;2024-01-10T17:00:04;43.05;;;20.85;;
49870;SDS011;35767;52.322;9.122;2024-01-10T17:03:07;47.05;;;22.38;;
49870;SDS011;35767;52.322;9.122;2024-01-10T17:06:10;42.40;;;21.70;;
49870;SDS011;35767;52.322;9.122;2024-01-10T17:09:11;45.65;;;22.25;;
49870;SDS011;35767;52.322;9.122;2024-01-10T17:12:13;40.85;;;20.80;;
49870;SDS011;35767;52.322;9.122;2024-01-10T17:15:14;44.10;;;21.08;;
49870;SDS011;35767;52.322;9.122;2024-01-10T17:18:16;39.53;;;19.20;;
49870;SDS011;35767;52.322;9.122;2024-01-10T17:21:26;42.03;;;21.00;;
49870;SDS011;35767;52.322;9.122;2024-01-10T17:24:27;37.67;;;20.77;;
49870;SDS011;35767;52.322;9.122;2024-01-10T17:27:29;38.47;;;18.80;;
49870;SDS011;35767;52.322;9.122;2024-01-10T17:30:37;43.38;;;18.40;;
49870;SDS011;35767;52.322;9.122;2024-01-10T17:33:38;36.92;;;17.95;;
49870;SDS011;35767;52.322;9.122;2024-01-10T17:36:41;39.35;;;19.88;;
49870;SDS011;35767;52.322;9.122;2024-01-10T17:39:43;38.25;;;20.52;;
49870;SDS011;35767;52.322;9.122;2024-01-10T17:42:44;39.73;;;19.17;;
49870;SDS011;35767;52.322;9.122;2024-01-10T17:45:46;40.85;;;19.67;;
49870;SDS011;35767;52.322;9.122;2024-01-10T17:48:54;38.92;;;19.13;;
49870;SDS011;35767;52.322;9.122;2024-01-10T17:51:57;34.70;;;18.35;;
49870;SDS011;35767;52.322;9.122;2024-01-10T17:54:58;45.55;;;20.98;;
49870;SDS011;35767;52.322;9.122;2024-01-10T17:58:00;38.75;;;18.73;;
49870;SDS011;35767;52.322;9.122;2024-01-10T18:01:01;43.35;;;19.88;;
49870;SDS011;35767;52.322;9.122;2024-01-10T18:04:03;35.50;;;18.67;;
49870;SDS011;35767;52.322;9.122;2024-01-10T18:07:15;45.63;;;18.75;;
49870;SDS011;35767;52.322;9.122;2024-01-10T18:10:17;41.97;;;18.58;;
49870;SDS011;35767;52.322;9.122;2024-01-10T18:13:26;42.83;;;19.83;;
49870;SDS011;35767;52.322;9.122;2024-01-10T18:16:27;41.70;;;19.63;;
49870;SDS011;35767;52.322;9.122;2024-01-10T18:19:29;36.50;;;18.60;;